ADDS METAR Data INFO
IDs: Format: Raw Decoded Include TAF

Data at: 1942 UTC 17 Feb 2018

KUKI 171856Z AUTO 00000KT 10SM CLR 13/02 A3018 RMK AO2 SLP216 T01330022
KUKI 171756Z AUTO 00000KT 10SM CLR 10/03 A3021 RMK AO2 SLP227 T01000028 10100 20011 51005
KUKI 171656Z AUTO 00000KT 10SM CLR 07/03 A3021 RMK AO2 SLP227 T00670028
KUKI 171556Z AUTO 00000KT 10SM CLR 03/01 A3021 RMK AO2 SLP227 T00330011
KUKI 171456Z AUTO 00000KT 10SM CLR 02/00 A3019 RMK AO2 SLP222 T00220000 50001
KUKI 171356Z AUTO 00000KT 10SM CLR 02/00 A3019 RMK AO2 SLP223 T00170000
KUKI 171256Z AUTO 00000KT 10SM CLR 03/01 A3019 RMK AO2 SLP221 T00280011
KUKI 171156Z AUTO 00000KT 10SM CLR 03/01 A3019 RMK AO2 SLP219 T00330006 10083 20022 58009
KUKI 171056Z AUTO 00000KT 10SM CLR 04/02 A3020 RMK AO2 SLP223 T00440017
KUKI 170956Z AUTO 00000KT 10SM CLR 04/02 A3022 RMK AO2 SLP229 T00440017
KUKI 170856Z AUTO 00000KT 10SM CLR 06/02 A3022 RMK AO2 SLP229 T00560017 58001
KUKI 170756Z AUTO 00000KT 10SM CLR 06/02 A3022 RMK AO2 SLP232 T00610022 402001011
KUKI 170656Z AUTO 00000KT 10SM CLR 07/02 A3022 RMK AO2 SLP233 T00670022
KUKI 170556Z AUTO 00000KT 10SM CLR 07/03 A3022 RMK AO2 SLP231 T00670028 10194 20067 51009
KUKI 170456Z AUTO 31003KT 10SM CLR 09/03 A3021 RMK AO2 SLP230 T00890028
KUKI 170356Z AUTO 00000KT 10SM CLR 11/03 A3021 RMK AO2 SLP228 T01060028
KUKI 170256Z AUTO 00000KT 10SM CLR 12/02 A3019 RMK AO2 SLP223 T01170022 53010
KUKI 170156Z AUTO 23003KT 10SM CLR 14/03 A3017 RMK AO2 SLP216 T01390028
KUKI 170056Z AUTO 28003KT 10SM CLR 17/01 A3017 RMK AO2 SLP214 T01670011
KUKI 162356Z AUTO 34007KT 10SM CLR 19/00 A3016 RMK AO2 SLP211 T01940000 10200 20083 56022
KUKI 162256Z AUTO VRB04KT 10SM CLR 19/00 A3017 RMK AO2 SLP214 T01940000
KUKI 162156Z AUTO VRB03KT 10SM CLR 19/M02 A3018 RMK AO2 SLP217 T01891022
KUKI 162056Z AUTO 00000KT 10SM CLR 17/M04 A3023 RMK AO2 SLP233 T01721044 58026
KUKI 161956Z AUTO 00000KT 10SM CLR 14/M03 A3027 RMK AO2 SLP247 T01441028
KUKI 161856Z AUTO 00000KT 10SM CLR 11/M01 A3029 RMK AO2 SLP257 T01061011
KUKI 161756Z AUTO 00000KT 10SM CLR 08/00 A3030 RMK AO2 SLP262 T00830000 10083 21011 50002
KUKI 161656Z AUTO 00000KT 10SM CLR 04/00 A3032 RMK AO2 SLP267 T00440000
KUKI 161556Z AUTO 00000KT 10SM CLR 01/M01 A3031 RMK AO2 SLP263 T00111011
KUKI 161456Z AUTO 34003KT 10SM CLR 00/M02 A3030 RMK AO2 SLP260 T00001022 53004
KUKI 161356Z AUTO 30003KT 10SM CLR 01/M02 A3029 RMK AO2 SLP258 T00061022
KUKI 161256Z AUTO 00000KT 10SM CLR 01/M02 A3028 RMK AO2 SLP253 T00061017
KUKI 161156Z AUTO 31003KT 10SM CLR 02/M01 A3029 RMK AO2 SLP253 T00171011 10056 20006 58005
KUKI 161056Z AUTO 00000KT 10SM CLR 02/M01 A3028 RMK AO2 SLP252 T00171011
KUKI 160956Z AUTO 00000KT 10SM CLR 02/M01 A3031 RMK AO2 SLP261 T00171011
KUKI 160856Z AUTO 00000KT 10SM CLR 03/M01 A3030 RMK AO2 SLP260 T00281011 58004
KUKI 160756Z AUTO 00000KT 10SM CLR 04/M01 A3032 RMK AO2 SLP264 T00391006 401891011